Martel, Ohio
Current Conditions -  °F | °C
As of 12:53 AM on Monday 22 Dec 2014 (Local Time) from KMNN Reporting Station
Haze Haze  
Wind Chill: 25°   Ceiling: Unl
Heat Index: 25°   Visibility: 5mi
Dew Point: 20°   Wind: 3mph
Humidity: 81%   Direction: 110°ESE
Pressure: 30.13"   Gusts: NA
Location:  40.67°N, 82.91°W
Report Text: KMNN 220553Z AUTO 11003KT 5SM HZ CLR M04/M07 A3013 RMK AO2 SLP214 T10391067 11017 21050 58016 TSNO
Loading
Personal Weather Stations






























Interactive Weather Map New forecast layout! Learn more

10-Day Weather Forecast

Advertisements
Track Severe Weather on mobile